Time;durP1;ratioP1;P1;durP2;ratioP2;P2;SDS_P1;SDS_P2;PMS_P1;PMS_P2;Temp;Humidity;BMP_temperature;BMP_pressure;BME280_temperature;BME280_humidity;BME280_pressure;Samples;Min_cycle;Max_cycle;Signal;HPM_P1;HPM_P2
2022/11/24 00:01:22;;;;;;;26.05;6.63;;;6.70;99.90;;;;;;5114385;27;20482;-49
2022/11/24 00:03:53;;;;;;;21.08;6.30;;;6.40;99.90;;;;;;5113023;27;20470;-47
2022/11/24 00:06:19;;;;;;;21.33;6.57;;;6.40;99.90;;;;;;5111310;28;20031;-47
2022/11/24 00:08:45;;;;;;;23.80;6.28;;;6.40;99.90;;;;;;5115724;27;20474;-47
2022/11/24 00:11:17;;;;;;;26.80;5.68;;;6.40;99.90;;;;;;5114782;27;20035;-46
2022/11/24 00:13:42;;;;;;;22.13;5.95;;;6.60;99.90;;;;;;5113070;28;20111;-46
2022/11/24 00:16:11;;;;;;;27.30;5.57;;;6.90;99.90;;;;;;5113191;28;20106;-49
2022/11/24 00:18:38;;;;;;;26.88;5.38;;;6.70;99.90;;;;;;5113114;27;20092;-45
2022/11/24 00:21:03;;;;;;;22.75;5.65;;;6.40;99.90;;;;;;5113511;27;20104;-46
2022/11/24 00:23:29;;;;;;;26.88;5.63;;;6.50;99.90;;;;;;5112468;27;20039;-48
2022/11/24 00:26:05;;;;;;;22.13;5.30;;;7.00;99.90;;;;;;5112980;27;20035;-45
2022/11/24 00:28:32;;;;;;;19.48;5.25;;;6.50;99.90;;;;;;5113052;27;20039;-45
2022/11/24 00:30:58;;;;;;;25.50;4.95;;;6.70;99.90;;;;;;5096030;27;20046;-46
2022/11/24 00:33:24;;;;;;;24.63;5.60;;;6.90;99.90;;;;;;5094532;28;20036;-45
2022/11/24 00:35:57;;;;;;;20.52;5.03;;;6.70;99.90;;;;;;5114715;27;20050;-46
2022/11/24 00:38:23;;;;;;;23.30;5.47;;;6.70;99.90;;;;;;5113853;27;20099;-48
2022/11/24 00:40:49;;;;;;;26.13;5.50;;;7.00;99.90;;;;;;5113815;27;20035;-47
2022/11/24 00:43:15;;;;;;;31.73;6.55;;;6.60;99.90;;;;;;5097110;28;20039;-47
2022/11/24 00:45:41;;;;;;;20.05;4.35;;;7.00;99.90;;;;;;5112566;28;20042;-45
2022/11/24 00:48:07;;;;;;;24.23;5.70;;;6.70;99.90;;;;;;5112723;27;20386;-46
2022/11/24 00:50:33;;;;;;;23.73;5.28;;;7.20;99.90;;;;;;5112729;28;20032;-46
2022/11/24 00:52:59;;;;;;;27.45;5.20;;;7.20;99.90;;;;;;5112376;27;20031;-49
2022/11/24 00:55:24;;;;;;;26.27;5.07;;;7.10;99.90;;;;;;5112628;27;20034;-46
2022/11/24 00:57:50;;;;;;;26.42;5.53;;;7.20;99.90;;;;;;5094267;27;20031;-48
2022/11/24 01:00:16;;;;;;;20.63;5.43;;;7.10;99.90;;;;;;5112214;27;20035;-48
2022/11/24 01:02:42;;;;;;;25.98;5.15;;;7.00;99.90;;;;;;5112444;27;20439;-46
2022/11/24 01:05:08;;;;;;;28.92;5.22;;;6.80;99.90;;;;;;5109591;27;20054;-47
2022/11/24 01:07:34;;;;;;;19.85;4.45;;;7.60;99.90;;;;;;5112508;27;20384;-46
2022/11/24 01:10:00;;;;;;;24.13;4.80;;;6.90;99.90;;;;;;5113488;27;20051;-47
2022/11/24 01:12:26;;;;;;;24.35;4.35;;;7.00;99.90;;;;;;5112776;27;20474;-46
2022/11/24 01:14:51;;;;;;;20.65;4.45;;;7.00;99.90;;;;;;5113293;27;20035;-48
2022/11/24 01:17:17;;;;;;;23.55;4.10;;;6.90;99.90;;;;;;5094613;28;20119;-47
2022/11/24 01:19:45;;;;;;;19.52;4.35;;;7.40;99.90;;;;;;5094654;28;20551;-47
2022/11/24 01:22:12;;;;;;;26.02;4.53;;;7.40;99.90;;;;;;5113725;27;20092;-47
2022/11/24 01:24:37;;;;;;;16.67;4.45;;;6.90;99.90;;;;;;5112105;27;20039;-46
2022/11/24 01:27:03;;;;;;;26.25;4.65;;;7.00;99.90;;;;;;5111359;28;20055;-47
2022/11/24 01:29:29;;;;;;;26.83;4.70;;;7.30;99.90;;;;;;5112019;27;20050;-49
2022/11/24 01:31:54;;;;;;;19.75;4.35;;;7.40;99.90;;;;;;5111388;28;20482;-47
2022/11/24 01:34:20;;;;;;;26.02;4.75;;;7.40;99.90;;;;;;5112520;27;20060;-45
2022/11/24 01:36:46;;;;;;;23.38;5.03;;;6.90;99.90;;;;;;5112134;27;20475;-46
2022/11/24 01:39:12;;;;;;;19.27;4.32;;;7.40;99.90;;;;;;5112789;27;20074;-45
2022/11/24 01:41:38;;;;;;;27.30;4.75;;;7.00;99.90;;;;;;5112147;27;20114;-45
2022/11/24 01:44:41;;;;;;;21.63;4.78;;;7.50;99.90;;;;;;5111774;28;20096;-46
2022/11/24 01:47:31;;;;;;;21.52;4.32;;;7.40;99.90;;;;;;5049084;28;20052;-44
2022/11/24 01:50:00;;;;;;;27.42;5.70;;;7.40;99.90;;;;;;5076181;28;20142;-47
2022/11/24 01:52:35;;;;;;;19.02;4.18;;;7.70;99.90;;;;;;5112231;27;20114;-47
2022/11/24 01:55:14;;;;;;;20.60;5.05;;;7.50;99.90;;;;;;5113285;27;20043;-46
2022/11/24 01:57:49;;;;;;;24.38;4.60;;;7.30;99.90;;;;;;5112259;27;20067;-47
2022/11/24 02:00:17;;;;;;;22.27;4.50;;;7.70;99.90;;;;;;5110920;27;20046;-46
2022/11/24 02:02:44;;;;;;;24.98;4.30;;;7.30;99.90;;;;;;5110570;28;20048;-45
2022/11/24 02:05:18;;;;;;;15.60;3.78;;;7.10;99.90;;;;;;5110854;27;20514;-48
2022/11/24 02:07:45;;;;;;;17.23;3.70;;;7.60;99.90;;;;;;5109783;28;20039;-47
2022/11/24 02:10:15;;;;;;;22.33;3.92;;;7.20;99.90;;;;;;5110987;27;20160;-49
2022/11/24 02:12:45;;;;;;;15.00;4.20;;;7.10;99.90;;;;;;5110484;28;20130;-46
2022/11/24 02:15:16;;;;;;;16.77;4.05;;;7.50;99.90;;;;;;5075963;27;20039;-48
2022/11/24 02:17:42;;;;;;;22.25;4.22;;;7.40;99.90;;;;;;5111266;27;20359;-47
2022/11/24 02:20:09;;;;;;;21.25;4.18;;;7.50;99.90;;;;;;5111163;27;20047;-49
2022/11/24 02:22:53;;;;;;;20.40;4.18;;;7.10;99.90;;;;;;5112140;27;20483;-50
2022/11/24 02:25:27;;;;;;;20.25;3.80;;;7.50;99.90;;;;;;5111482;27;20067;-46
2022/11/24 02:27:54;;;;;;;23.77;3.70;;;7.40;99.90;;;;;;5112294;27;20101;-48
2022/11/24 02:30:20;;;;;;;16.83;4.13;;;7.10;99.90;;;;;;5092994;28;20089;-50
2022/11/24 02:32:51;;;;;;;22.02;4.05;;;7.60;99.90;;;;;;5112514;27;20039;-47
2022/11/24 02:35:17;;;;;;;22.50;4.00;;;7.40;99.90;;;;;;5111683;27;20546;-50
2022/11/24 02:37:42;;;;;;;20.88;4.38;;;7.30;99.90;;;;;;5111798;28;20039;-48
2022/11/24 02:40:09;;;;;;;23.23;4.20;;;7.70;99.90;;;;;;5110435;28;20368;-45
2022/11/24 02:42:42;;;;;;;19.42;4.13;;;7.70;99.90;;;;;;5110394;28;20114;-46
2022/11/24 02:45:10;;;;;;;17.77;3.80;;;7.50;99.90;;;;;;5110643;27;20192;-44
2022/11/24 02:47:35;;;;;;;23.88;3.85;;;7.70;99.90;;;;;;5092017;28;20035;-46
2022/11/24 02:50:01;;;;;;;20.65;4.53;;;7.70;99.90;;;;;;5111177;27;20503;-46
2022/11/24 02:52:27;;;;;;;18.98;3.75;;;7.40;99.90;;;;;;5110709;28;20044;-45
2022/11/24 02:54:52;;;;;;;14.90;3.60;;;7.70;99.90;;;;;;5111358;28;20157;-48
2022/11/24 02:57:18;;;;;;;27.25;4.00;;;7.70;99.90;;;;;;5110884;28;20028;-47
2022/11/24 02:59:45;;;;;;;20.90;3.53;;;7.20;99.90;;;;;;5111336;28;20043;-46
2022/11/24 03:02:11;;;;;;;20.83;3.88;;;7.30;99.90;;;;;;5110176;27;20057;-48
2022/11/24 03:04:36;;;;;;;22.27;3.63;;;7.40;99.90;;;;;;5110463;28;20446;-47
2022/11/24 03:07:02;;;;;;;17.42;4.18;;;7.30;99.90;;;;;;5110892;28;20036;-47
2022/11/24 03:09:29;;;;;;;15.63;3.00;;;7.60;99.90;;;;;;5091921;28;20425;-46
2022/11/24 03:11:54;;;;;;;15.50;3.53;;;7.50;99.90;;;;;;5092264;28;20479;-46
2022/11/24 03:14:20;;;;;;;16.73;3.60;;;7.50;99.90;;;;;;5111111;28;20038;-46
2022/11/24 03:16:46;;;;;;;21.48;3.22;;;7.20;99.90;;;;;;5110191;28;20110;-48
2022/11/24 03:19:12;;;;;;;16.30;3.50;;;7.50;99.90;;;;;;5111362;28;20071;-47
2022/11/24 03:21:37;;;;;;;18.42;3.63;;;7.40;99.90;;;;;;5110494;28;20067;-49
2022/11/24 03:24:03;;;;;;;20.60;3.75;;;7.50;99.90;;;;;;5111403;28;20039;-50
2022/11/24 03:26:29;;;;;;;21.92;3.80;;;7.30;99.90;;;;;;5116407;27;20355;-49
2022/11/24 03:28:56;;;;;;;15.27;3.00;;;7.20;99.90;;;;;;5114628;27;20408;-51
2022/11/24 03:31:22;;;;;;;15.70;3.30;;;7.20;99.90;;;;;;5098164;27;20115;-45
2022/11/24 03:33:48;;;;;;;22.13;3.33;;;7.10;99.90;;;;;;5112472;28;20078;-46
2022/11/24 03:36:13;;;;;;;20.10;3.40;;;7.40;99.90;;;;;;5113896;28;20437;-46
2022/11/24 03:38:39;;;;;;;21.48;3.63;;;7.30;99.90;;;;;;5095666;28;20096;-45
2022/11/24 03:41:05;;;;;;;16.38;3.60;;;7.10;99.90;;;;;;5113332;27;20078;-46
2022/11/24 03:43:31;;;;;;;16.05;4.25;;;7.30;99.90;;;;;;5114312;27;20127;-47
2022/11/24 03:45:56;;;;;;;18.38;3.58;;;7.10;99.90;;;;;;5114181;27;20069;-47
2022/11/24 03:48:22;;;;;;;17.83;3.80;;;7.30;99.90;;;;;;5114475;27;20039;-46
2022/11/24 03:50:56;;;;;;;15.60;3.33;;;7.20;99.90;;;;;;5114266;27;20034;-46
2022/11/24 03:53:23;;;;;;;20.10;3.05;;;6.90;99.90;;;;;;5114739;27;20093;-45
2022/11/24 03:55:48;;;;;;;17.60;2.92;;;7.10;99.90;;;;;;5112698;27;20035;-45
2022/11/24 03:58:14;;;;;;;22.67;3.72;;;7.20;99.90;;;;;;5113191;27;20027;-47
2022/11/24 04:00:41;;;;;;;16.98;3.15;;;7.10;99.90;;;;;;5114536;27;20031;-45
2022/11/24 04:03:06;;;;;;;19.50;3.97;;;6.80;99.90;;;;;;5095408;28;20061;-44
2022/11/24 04:05:35;;;;;;;17.70;3.30;;;7.00;99.90;;;;;;5115373;27;20031;-47
2022/11/24 04:08:02;;;;;;;19.35;3.25;;;6.80;99.90;;;;;;5114637;27;20070;-46
2022/11/24 04:10:29;;;;;;;17.30;3.38;;;7.20;99.90;;;;;;5115638;27;20044;-45
2022/11/24 04:12:54;;;;;;;18.88;3.08;;;7.00;99.90;;;;;;5094513;28;20039;-45
2022/11/24 04:15:20;;;;;;;16.90;2.92;;;6.80;99.90;;;;;;5113285;27;20058;-46
2022/11/24 04:17:47;;;;;;;16.92;3.42;;;6.80;99.90;;;;;;5113241;27;20032;-45
2022/11/24 04:20:14;;;;;;;18.60;3.58;;;7.00;99.90;;;;;;5094493;28;20122;-47
2022/11/24 04:22:40;;;;;;;14.43;3.53;;;7.00;99.90;;;;;;5094032;28;20454;-47
2022/11/24 04:25:07;;;;;;;16.75;3.03;;;7.10;99.90;;;;;;5113879;27;20108;-47
2022/11/24 04:27:33;;;;;;;17.48;3.25;;;6.70;99.90;;;;;;5113176;27;20056;-48
2022/11/24 04:29:59;;;;;;;16.50;3.25;;;7.10;99.90;;;;;;5113820;27;20146;-46
2022/11/24 04:32:25;;;;;;;16.92;2.78;;;7.20;99.90;;;;;;5095048;28;20119;-47
2022/11/24 04:34:51;;;;;;;16.77;3.15;;;6.80;99.90;;;;;;5113721;27;20083;-48
2022/11/24 04:37:16;;;;;;;19.35;3.33;;;7.10;99.90;;;;;;5094409;28;20513;-48
2022/11/24 04:39:43;;;;;;;16.83;2.65;;;7.10;99.90;;;;;;5113212;28;20031;-47
2022/11/24 04:42:09;;;;;;;19.75;3.97;;;7.10;99.90;;;;;;5113283;27;20118;-48
2022/11/24 04:44:35;;;;;;;21.33;3.30;;;6.90;99.90;;;;;;5112850;27;20170;-46
2022/11/24 04:47:01;;;;;;;20.48;3.00;;;6.80;99.90;;;;;;5113063;27;20039;-49
2022/11/24 04:49:26;;;;;;;16.88;2.80;;;6.80;99.90;;;;;;5113032;27;20039;-47
2022/11/24 04:51:52;;;;;;;15.43;2.67;;;6.50;99.90;;;;;;5114228;27;20042;-48
2022/11/24 04:54:18;;;;;;;22.23;3.88;;;6.80;99.90;;;;;;5113596;27;20035;-46
2022/11/24 04:56:43;;;;;;;19.13;3.15;;;6.70;99.90;;;;;;5110819;27;20372;-47
2022/11/24 04:59:15;;;;;;;17.48;3.33;;;6.50;99.90;;;;;;5112596;27;20512;-45
2022/11/24 05:01:42;;;;;;;17.30;2.95;;;6.60;99.90;;;;;;5113127;27;20138;-45
2022/11/24 05:04:10;;;;;;;17.00;3.17;;;6.40;99.90;;;;;;5114345;27;20039;-45
2022/11/24 05:06:36;;;;;;;18.45;3.13;;;6.80;99.90;;;;;;5112301;27;20039;-45
2022/11/24 05:09:02;;;;;;;16.92;3.22;;;6.60;99.90;;;;;;5112127;27;20048;-45
2022/11/24 05:11:28;;;;;;;16.10;3.25;;;6.40;99.90;;;;;;5112426;27;20505;-46
2022/11/24 05:13:53;;;;;;;15.95;2.97;;;6.80;99.90;;;;;;5112888;27;20035;-45
2022/11/24 05:16:19;;;;;;;14.57;2.70;;;6.30;99.90;;;;;;5112628;27;20035;-46
2022/11/24 05:18:45;;;;;;;16.45;3.42;;;6.80;99.90;;;;;;5112840;27;20050;-44
2022/11/24 05:21:10;;;;;;;20.17;3.10;;;6.40;99.90;;;;;;5112592;27;20039;-46
2022/11/24 05:23:36;;;;;;;17.10;3.03;;;6.80;99.90;;;;;;5094540;28;20047;-47
2022/11/24 05:26:02;;;;;;;17.48;3.90;;;6.40;99.90;;;;;;5095356;28;20111;-48
2022/11/24 05:28:28;;;;;;;17.10;3.17;;;6.50;99.90;;;;;;5111242;28;20089;-48
2022/11/24 05:30:58;;;;;;;17.80;3.17;;;6.70;99.90;;;;;;5111654;28;20399;-48
2022/11/24 05:33:23;;;;;;;17.15;3.85;;;6.30;99.90;;;;;;5111828;28;20032;-48
2022/11/24 05:35:49;;;;;;;15.77;2.85;;;6.40;99.90;;;;;;5111981;28;20027;-50
2022/11/24 05:38:16;;;;;;;12.57;2.65;;;6.90;99.90;;;;;;5111889;27;20036;-47
2022/11/24 05:40:42;;;;;;;17.30;2.92;;;6.40;99.90;;;;;;5111974;27;20510;-47
2022/11/24 05:43:12;;;;;;;14.98;3.30;;;6.60;99.90;;;;;;5112783;27;20039;-47
2022/11/24 05:45:38;;;;;;;16.75;3.15;;;6.70;99.90;;;;;;5112259;27;20475;-47
2022/11/24 05:48:09;;;;;;;18.33;3.95;;;6.40;99.90;;;;;;5093164;28;20027;-46
2022/11/24 05:50:35;;;;;;;19.80;3.78;;;6.30;99.90;;;;;;5110651;27;20142;-49
2022/11/24 05:53:06;;;;;;;16.88;3.25;;;6.70;99.90;;;;;;5112044;27;20502;-48
2022/11/24 05:55:32;;;;;;;13.10;3.17;;;6.40;99.90;;;;;;5112912;27;20513;-49
2022/11/24 05:58:03;;;;;;;16.10;3.30;;;6.60;99.90;;;;;;5111998;27;20075;-47
2022/11/24 06:00:29;;;;;;;15.90;3.30;;;6.70;99.90;;;;;;5094953;28;20078;-45
2022/11/24 06:02:59;;;;;;;17.25;2.85;;;6.70;99.90;;;;;;5112047;27;20050;-48
2022/11/24 06:05:26;;;;;;;20.00;4.20;;;6.50;99.90;;;;;;5112229;27;20431;-46
2022/11/24 06:07:52;;;;;;;16.38;3.30;;;6.60;99.90;;;;;;5110976;28;20459;-49
2022/11/24 06:10:19;;;;;;;14.27;3.03;;;6.60;99.90;;;;;;5110852;27;20531;-44
2022/11/24 06:12:45;;;;;;;15.38;3.53;;;6.90;99.90;;;;;;5111383;28;20035;-47
2022/11/24 06:15:11;;;;;;;19.13;3.85;;;6.70;99.90;;;;;;5111088;27;20104;-45
2022/11/24 06:17:38;;;;;;;16.15;3.42;;;6.80;99.90;;;;;;5111777;27;20232;-46
2022/11/24 06:20:05;;;;;;;20.27;3.40;;;6.60;99.90;;;;;;5110829;27;20047;-47
2022/11/24 06:22:31;;;;;;;20.00;3.33;;;6.80;99.90;;;;;;5093443;28;20042;-45
2022/11/24 06:24:57;;;;;;;16.08;2.90;;;6.70;99.90;;;;;;5111355;27;20031;-45
2022/11/24 06:27:23;;;;;;;19.23;3.35;;;6.80;99.90;;;;;;5111053;27;20447;-48
2022/11/24 06:29:49;;;;;;;19.42;4.10;;;7.20;99.90;;;;;;5112152;27;20523;-47
2022/11/24 06:32:15;;;;;;;16.63;3.33;;;6.80;99.90;;;;;;5111315;27;20040;-47
2022/11/24 06:34:41;;;;;;;17.40;3.40;;;6.80;99.90;;;;;;5093753;27;20073;-46
2022/11/24 06:37:06;;;;;;;21.30;4.20;;;7.10;99.90;;;;;;5111492;27;20059;-47
2022/11/24 06:39:32;;;;;;;14.25;4.03;;;6.80;99.90;;;;;;5111750;27;20096;-45
2022/11/24 06:41:58;;;;;;;16.83;4.13;;;7.20;99.90;;;;;;5113002;27;20043;-48
2022/11/24 06:44:24;;;;;;;20.02;3.65;;;6.80;99.90;;;;;;5092497;28;20088;-46
2022/11/24 06:46:49;;;;;;;18.00;4.32;;;6.80;99.90;;;;;;5092428;28;20139;-48
2022/11/24 06:49:15;;;;;;;20.23;4.72;;;6.90;99.90;;;;;;5111101;28;20061;-48
2022/11/24 06:51:41;;;;;;;17.50;4.35;;;6.80;99.90;;;;;;5111864;27;20500;-47
2022/11/24 06:54:19;;;;;;;25.05;5.20;;;7.00;99.90;;;;;;5111355;27;20050;-46
2022/11/24 06:56:45;;;;;;;17.02;5.03;;;6.90;99.90;;;;;;5112304;27;20042;-48
2022/11/24 06:59:19;;;;;;;20.73;6.15;;;7.20;99.90;;;;;;5111051;27;20545;-46
2022/11/24 07:01:45;;;;;;;17.53;5.10;;;7.40;99.90;;;;;;5112833;27;20085;-47
2022/11/24 07:04:11;;;;;;;21.15;5.10;;;7.20;99.90;;;;;;5109842;28;20775;-45
2022/11/24 07:06:40;;;;;;;20.70;5.20;;;7.30;99.90;;;;;;5110599;28;20047;-49
2022/11/24 07:09:06;;;;;;;20.40;5.72;;;7.40;99.90;;;;;;5110217;28;20039;-47
2022/11/24 07:11:32;;;;;;;20.85;6.00;;;6.90;99.90;;;;;;5110178;28;20047;-46
2022/11/24 07:13:57;;;;;;;18.92;6.13;;;7.00;99.90;;;;;;5106226;28;20043;-45
2022/11/24 07:16:24;;;;;;;17.58;5.45;;;6.90;99.90;;;;;;5092281;28;20059;-46
2022/11/24 07:18:51;;;;;;;20.45;5.65;;;6.90;99.90;;;;;;5111672;28;20534;-48
2022/11/24 07:21:19;;;;;;;18.38;6.18;;;7.30;99.90;;;;;;5110796;28;20036;-46
2022/11/24 07:23:48;;;;;;;17.00;5.95;;;7.20;99.90;;;;;;5111536;28;20067;-49
2022/11/24 07:26:14;;;;;;;21.52;6.35;;;6.90;99.90;;;;;;5092364;28;20052;-47
2022/11/24 07:28:40;;;;;;;16.40;6.82;;;6.90;99.90;;;;;;5092154;28;20130;-48
2022/11/24 07:31:07;;;;;;;13.43;5.25;;;6.90;99.90;;;;;;5111779;28;20044;-45
2022/11/24 07:33:33;;;;;;;16.50;5.93;;;6.90;99.90;;;;;;5109420;28;20126;-46
2022/11/24 07:36:00;;;;;;;16.58;5.38;;;7.20;99.90;;;;;;5109751;28;20462;-45
2022/11/24 07:38:25;;;;;;;15.55;5.43;;;7.00;99.90;;;;;;5109323;28;20032;-48
2022/11/24 07:40:51;;;;;;;19.17;5.85;;;6.90;99.90;;;;;;5109780;28;20028;-46
2022/11/24 07:43:16;;;;;;;13.93;4.85;;;6.90;99.90;;;;;;5110240;28;20390;-45
2022/11/24 07:45:42;;;;;;;14.63;4.82;;;6.90;99.90;;;;;;5110061;28;20055;-47
2022/11/24 07:48:09;;;;;;;9.77;4.43;;;7.20;99.90;;;;;;5092190;28;20717;-46
2022/11/24 07:50:35;;;;;;;11.82;4.35;;;7.30;99.90;;;;;;5108532;28;20098;-46
2022/11/24 07:53:02;;;;;;;16.55;5.50;;;6.90;99.90;;;;;;5089450;28;20071;-46
2022/11/24 07:55:28;;;;;;;10.23;4.15;;;7.20;99.90;;;;;;5105823;28;20626;-46
2022/11/24 07:57:58;;;;;;;14.23;5.07;;;6.90;99.90;;;;;;5108661;28;20024;-48
2022/11/24 08:00:24;;;;;;;12.48;4.35;;;7.40;99.90;;;;;;5089429;28;20043;-47
2022/11/24 08:02:49;;;;;;;12.48;4.43;;;6.70;99.90;;;;;;5090875;28;20402;-47
2022/11/24 08:05:15;;;;;;;9.88;4.07;;;6.90;99.90;;;;;;5056096;28;20519;-48
2022/11/24 08:07:41;;;;;;;13.23;4.18;;;7.10;99.90;;;;;;5100216;28;20468;-47
2022/11/24 08:10:07;;;;;;;10.75;4.07;;;6.70;99.90;;;;;;5100702;28;20067;-49
2022/11/24 08:12:33;;;;;;;12.40;3.75;;;7.00;99.90;;;;;;5103460;28;20058;-47
2022/11/24 08:14:58;;;;;;;11.23;3.17;;;6.80;99.90;;;;;;5066424;28;21096;-47
2022/11/24 08:17:24;;;;;;;10.18;3.15;;;6.80;99.90;;;;;;5099284;28;20491;-49
2022/11/24 08:19:50;;;;;;;8.60;2.88;;;7.00;99.90;;;;;;5097618;28;20032;-45
2022/11/24 08:22:16;;;;;;;7.75;2.78;;;6.70;99.90;;;;;;5103921;27;20035;-47
2022/11/24 08:24:45;;;;;;;7.28;2.45;;;7.00;99.90;;;;;;5103790;27;20570;-47
2022/11/24 08:27:13;;;;;;;9.18;2.30;;;6.90;99.90;;;;;;5103848;28;20060;-47
2022/11/24 08:29:38;;;;;;;6.05;2.28;;;7.00;99.90;;;;;;5103635;27;20112;-50
2022/11/24 08:32:04;;;;;;;7.57;1.98;;;6.90;99.90;;;;;;5104178;28;20031;-49
2022/11/24 08:34:30;;;;;;;7.05;1.88;;;6.90;99.90;;;;;;5103758;28;20057;-46
2022/11/24 08:36:55;;;;;;;4.70;1.75;;;7.00;99.90;;;;;;5102302;28;20036;-46
2022/11/24 08:39:21;;;;;;;7.78;1.70;;;7.00;99.90;;;;;;5066439;28;20032;-45
2022/11/24 08:41:47;;;;;;;7.20;1.75;;;7.30;99.90;;;;;;5100213;27;20081;-47
2022/11/24 08:44:14;;;;;;;6.32;1.70;;;7.30;99.90;;;;;;5100943;28;20038;-46
2022/11/24 08:46:40;;;;;;;4.53;1.60;;;7.40;99.90;;;;;;5084748;28;20253;-46
2022/11/24 08:49:06;;;;;;;4.80;2.03;;;7.50;99.90;;;;;;5102569;27;20460;-47
2022/11/24 08:51:32;;;;;;;4.65;1.65;;;7.50;99.90;;;;;;5102796;27;20081;-47
2022/11/24 08:53:59;;;;;;;7.35;1.80;;;7.60;99.90;;;;;;5101756;27;20032;-47
2022/11/24 08:56:27;;;;;;;6.90;2.13;;;7.50;99.90;;;;;;5102989;27;20032;-47
2022/11/24 08:58:53;;;;;;;5.53;1.80;;;7.50;99.90;;;;;;5102182;28;20390;-48
2022/11/24 09:01:19;;;;;;;6.57;2.55;;;7.50;99.90;;;;;;5101332;28;20050;-46
2022/11/24 09:03:47;;;;;;;6.97;1.95;;;7.60;99.90;;;;;;5100680;28;20036;-44
2022/11/24 09:06:14;;;;;;;9.68;2.65;;;7.50;99.90;;;;;;5089493;28;20059;-46
2022/11/24 09:08:39;;;;;;;5.90;2.85;;;7.70;99.90;;;;;;5086519;28;20027;-47
2022/11/24 09:11:15;;;;;;;10.20;3.72;;;7.70;99.90;;;;;;5097338;28;20035;-47
2022/11/24 09:13:42;;;;;;;10.45;4.20;;;7.60;99.90;;;;;;5081420;28;20038;-46
2022/11/24 09:16:13;;;;;;;9.35;4.80;;;7.90;99.90;;;;;;5100812;28;20028;-44
2022/11/24 09:18:39;;;;;;;9.43;5.30;;;8.00;99.90;;;;;;5101063;28;20031;-46
2022/11/24 09:21:25;;;;;;;11.23;5.28;;;7.70;99.90;;;;;;5099693;28;20115;-46
2022/11/24 09:23:51;;;;;;;9.15;4.97;;;7.90;99.90;;;;;;5099605;28;20039;-48
2022/11/24 09:26:37;;;;;;;11.07;5.60;;;8.20;99.90;;;;;;5097479;28;20035;-46
2022/11/24 09:29:06;;;;;;;10.27;5.75;;;8.10;99.90;;;;;;5097351;28;20051;-46
2022/11/24 09:31:34;;;;;;;10.90;6.18;;;8.20;99.90;;;;;;5099598;28;20491;-47
2022/11/24 09:34:00;;;;;;;10.23;5.93;;;8.50;99.90;;;;;;5079149;28;20031;-46
2022/11/24 09:36:27;;;;;;;9.75;5.60;;;8.10;99.90;;;;;;5099124;28;20150;-49
2022/11/24 09:38:53;;;;;;;13.05;6.32;;;8.50;99.90;;;;;;5098152;28;20031;-45
2022/11/24 09:41:30;;;;;;;13.63;7.07;;;8.30;99.90;;;;;;5097860;28;20036;-44
2022/11/24 09:44:16;;;;;;;12.00;6.53;;;8.50;99.90;;;;;;5097259;28;20039;-48
2022/11/24 09:46:50;;;;;;;12.75;6.90;;;8.40;99.90;;;;;;5095634;28;20479;-47
2022/11/24 09:49:26;;;;;;;12.23;6.90;;;8.40;99.90;;;;;;5098964;28;20105;-46
2022/11/24 09:51:53;;;;;;;11.70;6.90;;;8.50;99.90;;;;;;5097695;28;20057;-48
2022/11/24 09:54:23;;;;;;;13.18;7.85;;;8.50;99.90;;;;;;5094496;28;20031;-49
2022/11/24 09:56:51;;;;;;;12.77;7.53;;;8.50;99.90;;;;;;5096982;28;20120;-48
2022/11/24 09:59:18;;;;;;;12.05;6.93;;;8.70;99.90;;;;;;5094355;28;20046;-45
2022/11/24 10:01:46;;;;;;;10.32;6.60;;;9.10;99.90;;;;;;5098680;28;20057;-46
2022/11/24 10:04:34;;;;;;;12.27;6.20;;;9.20;99.90;;;;;;5097931;28;20052;-48
2022/11/24 10:07:07;;;;;;;12.35;6.05;;;10.00;99.90;;;;;;5081850;28;20035;-49
2022/11/24 10:09:35;;;;;;;12.47;6.27;;;9.80;99.90;;;;;;5100383;28;20064;-46
2022/11/24 10:12:17;;;;;;;11.02;5.95;;;10.00;99.90;;;;;;5099345;28;20131;-48
2022/11/24 10:14:48;;;;;;;11.30;6.13;;;10.20;99.90;;;;;;5099784;28;20551;-47
2022/11/24 10:17:17;;;;;;;12.20;6.05;;;10.30;99.90;;;;;;5096896;28;20478;-47
2022/11/24 10:20:00;;;;;;;11.18;6.13;;;10.40;99.90;;;;;;5100182;28;20035;-48
2022/11/24 10:22:51;;;;;;;12.40;6.80;;;10.30;99.90;;;;;;5100608;28;20039;-46
2022/11/24 10:25:24;;;;;;;12.15;5.75;;;10.60;99.90;;;;;;5097533;27;20046;-46
2022/11/24 10:28:03;;;;;;;11.97;6.30;;;10.60;99.90;;;;;;5082719;28;20054;-47
2022/11/24 10:30:29;;;;;;;10.40;5.97;;;10.70;99.90;;;;;;5100905;28;20296;-46
2022/11/24 10:33:00;;;;;;;12.02;5.70;;;10.90;99.90;;;;;;5098633;28;20763;-48
2022/11/24 10:35:44;;;;;;;9.35;5.80;;;11.00;99.90;;;;;;5097771;28;20076;-47
2022/11/24 10:38:20;;;;;;;12.10;5.90;;;11.20;99.90;;;;;;5098779;28;20054;-46
2022/11/24 10:41:07;;;;;;;8.25;5.57;;;11.40;99.90;;;;;;5095146;28;20027;-45
2022/11/24 10:43:33;;;;;;;11.52;5.93;;;11.50;99.90;;;;;;5099925;28;20031;-48
2022/11/24 10:46:07;;;;;;;13.63;5.53;;;11.60;99.90;;;;;;5081155;28;20386;-46
2022/11/24 10:48:46;;;;;;;10.93;5.47;;;11.40;99.90;;;;;;5104056;28;20044;-48
2022/11/24 10:51:47;;;;;;;11.27;5.75;;;11.30;99.90;;;;;;5099340;28;20039;-48
2022/11/24 10:54:19;;;;;;;13.95;5.50;;;11.10;99.90;;;;;;5102888;28;20514;-51
2022/11/24 10:56:46;;;;;;;14.65;5.53;;;10.90;99.90;;;;;;5100525;28;20470;-50
2022/11/24 10:59:38;;;;;;;10.00;5.63;;;10.90;99.90;;;;;;5101077;28;20115;-49
2022/11/24 11:02:34;;;;;;;13.60;4.93;;;10.90;99.90;;;;;;5100925;28;20437;-48
2022/11/24 11:05:22;;;;;;;10.20;5.25;;;10.80;99.90;;;;;;5101986;28;20035;-47
2022/11/24 11:07:48;;;;;;;10.30;5.07;;;11.20;99.90;;;;;;5069564;28;20039;-49
2022/11/24 11:10:22;;;;;;;11.60;4.88;;;11.50;99.90;;;;;;5101875;28;20043;-47
2022/11/24 11:12:49;;;;;;;9.95;4.55;;;11.70;99.90;;;;;;5103315;28;20031;-46
2022/11/24 11:15:44;;;;;;;12.10;4.57;;;12.20;99.90;;;;;;5102802;28;20040;-47
2022/11/24 11:18:15;;;;;;;10.68;4.50;;;12.30;99.90;;;;;;5089912;28;20376;-45
2022/11/24 11:20:55;;;;;;;9.85;4.45;;;12.60;99.90;;;;;;5087213;28;20040;-45
2022/11/24 11:23:42;;;;;;;12.32;4.30;;;12.80;99.90;;;;;;5109174;28;20158;-43
2022/11/24 11:26:23;;;;;;;12.90;4.38;;;13.00;99.90;;;;;;5105846;28;20482;-43
2022/11/24 11:29:18;;;;;;;11.20;4.38;;;13.20;99.90;;;;;;5106005;28;20079;-44
2022/11/24 11:32:00;;;;;;;10.90;4.97;;;13.30;99.90;;;;;;5100064;28;20039;-47
2022/11/24 11:34:26;;;;;;;11.90;4.07;;;13.30;99.90;;;;;;5074071;28;20390;-47
2022/11/24 11:36:55;;;;;;;12.73;4.00;;;13.40;99.90;;;;;;5104596;28;20130;-48
2022/11/24 11:39:21;;;;;;;12.90;4.15;;;13.40;99.90;;;;;;5102134;28;20035;-46
2022/11/24 11:41:50;;;;;;;12.43;4.18;;;13.30;99.90;;;;;;5107033;28;20105;-48
2022/11/24 11:44:28;;;;;;;13.38;4.28;;;13.10;99.90;;;;;;5105376;28;20042;-48
2022/11/24 11:46:57;;;;;;;16.55;4.25;;;13.00;99.90;;;;;;5087290;28;20043;-45
2022/11/24 11:49:23;;;;;;;16.05;4.50;;;13.10;99.90;;;;;;5106459;28;20126;-47
2022/11/24 11:51:52;;;;;;;13.82;3.90;;;13.20;99.90;;;;;;5106192;28;20042;-46
2022/11/24 11:54:33;;;;;;;13.50;3.97;;;13.40;99.90;;;;;;5104512;28;20039;-46
2022/11/24 11:57:31;;;;;;;12.57;3.55;;;13.40;99.90;;;;;;5093597;28;20039;-48
2022/11/24 12:00:11;;;;;;;13.85;3.30;;;13.40;99.90;;;;;;5087786;28;20063;-46
2022/11/24 12:02:45;;;;;;;14.20;3.40;;;13.40;99.90;;;;;;5107322;28;20517;-46
2022/11/24 12:05:17;;;;;;;11.07;3.40;;;13.40;99.90;;;;;;5105323;28;20040;-45
2022/11/24 12:08:07;;;;;;;13.68;3.33;;;13.50;99.90;;;;;;5107154;28;20345;-49
2022/11/24 12:10:58;;;;;;;11.35;3.42;;;13.40;99.90;;;;;;5106130;28;20039;-48
2022/11/24 12:13:23;;;;;;;11.55;3.40;;;13.40;99.90;;;;;;5106632;28;20122;-47
2022/11/24 12:15:52;;;;;;;14.10;3.47;;;13.60;99.90;;;;;;5106569;28;20454;-49
2022/11/24 12:18:37;;;;;;;13.00;3.10;;;13.70;99.90;;;;;;5105445;28;20043;-48
2022/11/24 12:21:15;;;;;;;;;;;13.60;99.90;;;;;;5106919;28;20039;-49
2022/11/24 12:24:09;;;;;;;15.35;3.25;;;13.50;99.90;;;;;;5104020;28;19923;-46
2022/11/24 12:26:49;;;;;;;11.45;3.47;;;13.70;99.90;;;;;;5110389;28;20089;-47
2022/11/24 12:29:47;;;;;;;14.30;3.20;;;13.60;99.90;;;;;;5107769;28;20058;-46
2022/11/24 12:32:38;;;;;;;15.00;3.17;;;13.60;99.90;;;;;;5113578;27;20071;-48
2022/11/24 12:35:39;;;;;;;13.88;2.80;;;13.60;99.90;;;;;;5107614;27;20039;-47
2022/11/24 12:38:30;;;;;;;13.55;3.10;;;13.60;99.90;;;;;;5068848;28;20128;-46
2022/11/24 12:41:29;;;;;;;12.32;2.55;;;13.70;99.90;;;;;;5092849;28;20047;-50
2022/11/24 12:43:58;;;;;;;9.45;2.50;;;13.70;99.90;;;;;;5111789;27;20363;-47
2022/11/24 12:46:55;;;;;;;13.77;2.75;;;13.80;99.90;;;;;;5113417;27;20092;-46
2022/11/24 12:49:28;;;;;;;12.32;2.50;;;13.80;99.90;;;;;;5113029;27;20122;-46
2022/11/24 12:52:03;;;;;;;12.85;2.97;;;13.90;99.90;;;;;;5113005;27;20044;-48
2022/11/24 12:54:39;;;;;;;15.25;3.13;;;13.90;99.90;;;;;;5112827;27;20067;-46
2022/11/24 12:57:32;;;;;;;12.75;2.80;;;13.80;99.90;;;;;;5111504;27;20032;-45
2022/11/24 13:00:06;;;;;;;15.20;3.05;;;14.00;99.90;;;;;;5114180;27;20035;-44